createdAt,value
2023-04-16T00:00:09.585Z,3.94
2023-04-16T00:02:40.347Z,4.38
2023-04-16T00:05:09.819Z,4.19
2023-04-16T00:07:37.686Z,4.18
2023-04-16T00:10:05.904Z,4.58
2023-04-16T00:12:34.206Z,4.43
2023-04-16T00:15:02.267Z,4.52
2023-04-16T00:17:30.057Z,4.66
2023-04-16T00:19:58.292Z,4.66
2023-04-16T00:22:26.286Z,4.39
2023-04-16T00:24:54.111Z,5.16
2023-04-16T00:27:22.286Z,5.49
2023-04-16T00:29:50.748Z,5.06
2023-04-16T00:32:19.070Z,5.36
2023-04-16T00:34:47.272Z,5.48
2023-04-16T00:37:17.577Z,5.75
2023-04-16T00:39:46.086Z,5.75
2023-04-16T00:42:14.208Z,6.03
2023-04-16T00:44:41.910Z,6.64
2023-04-16T00:47:10.149Z,6.28
2023-04-16T00:49:38.312Z,6.68
2023-04-16T00:52:06.615Z,6.64
2023-04-16T00:54:34.713Z,6.78
2023-04-16T00:57:04.971Z,7.26
2023-04-16T00:59:33.745Z,7.06
2023-04-16T01:02:02.039Z,7.11
2023-04-16T01:04:31.223Z,7.47
2023-04-16T01:06:59.410Z,7.44
2023-04-16T01:09:27.360Z,7.60
2023-04-16T01:11:55.353Z,8.46
2023-04-16T01:14:23.211Z,7.91
2023-04-16T01:16:51.214Z,8.51
2023-04-16T01:19:19.104Z,8.57
2023-04-16T01:21:47.291Z,8.42
2023-04-16T01:24:15.097Z,9.24
2023-04-16T01:26:42.895Z,9.18
2023-04-16T01:29:11.103Z,9.12
2023-04-16T01:31:39.623Z,9.60
2023-04-16T01:34:18.130Z,9.30
2023-04-16T01:36:46.488Z,9.18
2023-04-16T01:39:16.556Z,9.46
2023-04-16T01:41:44.426Z,9.75
2023-04-16T01:44:12.140Z,9.15
2023-04-16T01:46:41.017Z,9.38
2023-04-16T01:49:09.205Z,9.27
2023-04-16T01:51:37.190Z,9.48
2023-04-16T01:54:05.048Z,9.38
2023-04-16T01:56:33.562Z,9.42
2023-04-16T01:59:01.727Z,9.74
2023-04-16T02:01:35.902Z,9.59
2023-04-16T02:04:05.476Z,9.53
2023-04-16T02:06:33.383Z,9.99
2023-04-16T02:09:03.372Z,9.61
2023-04-16T02:11:34.292Z,9.67
2023-04-16T02:14:02.396Z,9.77
2023-04-16T02:16:30.881Z,10.23
2023-04-16T02:19:11.113Z,10.06
2023-04-16T02:21:39.584Z,10.44
2023-04-16T02:24:08.561Z,10.08
2023-04-16T02:26:36.779Z,10.44
2023-04-16T02:29:10.187Z,11.05
2023-04-16T02:31:43.483Z,10.52
2023-04-16T02:34:12.800Z,10.27
2023-04-16T02:36:42.198Z,10.91
2023-04-16T02:39:13.616Z,10.76
2023-04-16T02:41:41.605Z,11.13
2023-04-16T02:44:09.462Z,11.57
2023-04-16T02:46:37.475Z,11.32
2023-04-16T02:49:05.387Z,11.17
2023-04-16T02:51:33.521Z,11.70
2023-04-16T02:54:04.101Z,11.62
2023-04-16T02:56:33.327Z,11.98
2023-04-16T02:59:01.320Z,12.13
2023-04-16T03:01:29.925Z,11.98
2023-04-16T03:03:58.408Z,12.53
2023-04-16T03:06:27.126Z,12.02
2023-04-16T03:08:55.378Z,12.31
2023-04-16T03:11:23.771Z,13.10
2023-04-16T03:13:51.684Z,13.16
2023-04-16T03:16:19.701Z,12.55
2023-04-16T03:18:47.670Z,12.56
2023-04-16T03:21:18.333Z,12.51
2023-04-16T03:23:46.724Z,12.22
2023-04-16T03:26:14.736Z,12.54
2023-04-16T03:28:43.633Z,12.27
2023-04-16T03:31:12.095Z,12.67
2023-04-16T03:33:40.462Z,12.83
2023-04-16T03:36:08.841Z,12.19
2023-04-16T03:38:36.990Z,12.44
2023-04-16T03:41:04.801Z,12.37
2023-04-16T03:43:34.568Z,12.23
2023-04-16T03:46:02.738Z,11.76
2023-04-16T03:48:30.973Z,11.96
2023-04-16T03:51:00.533Z,12.25
2023-04-16T03:53:29.596Z,12.58
2023-04-16T03:55:57.613Z,12.49
2023-04-16T03:58:25.434Z,13.09
2023-04-16T04:00:55.913Z,13.11
2023-04-16T04:03:26.677Z,13.07
2023-04-16T04:05:57.417Z,12.67
2023-04-16T04:08:29.371Z,12.71
2023-04-16T04:10:57.333Z,12.85
2023-04-16T04:13:26.367Z,12.27
2023-04-16T04:15:54.915Z,12.70
2023-04-16T04:18:24.184Z,12.51
2023-04-16T04:20:52.596Z,12.79
2023-04-16T04:23:24.330Z,13.07
2023-04-16T04:25:53.272Z,12.88
2023-04-16T04:28:21.637Z,12.82
2023-04-16T04:30:49.495Z,12.82
2023-04-16T04:33:17.721Z,12.72
2023-04-16T04:35:45.855Z,12.16
2023-04-16T04:38:19.890Z,12.35
2023-04-16T04:40:48.599Z,12.36
2023-04-16T04:43:17.917Z,12.01
2023-04-16T04:45:46.574Z,12.08
2023-04-16T04:48:15.059Z,11.69
2023-04-16T04:50:44.755Z,11.73
2023-04-16T04:53:15.161Z,12.08
2023-04-16T04:55:43.957Z,11.56
2023-04-16T04:58:11.785Z,12.32
2023-04-16T05:00:41.190Z,12.10
2023-04-16T05:03:13.585Z,12.35
2023-04-16T05:05:41.699Z,12.55
2023-04-16T05:08:09.467Z,12.32
2023-04-16T05:10:40.647Z,12.13
2023-04-16T05:13:08.688Z,12.49
2023-04-16T05:15:36.754Z,12.35
2023-04-16T05:18:04.745Z,12.79
2023-04-16T05:20:33.032Z,12.67
2023-04-16T05:23:01.041Z,12.96
2023-04-16T05:25:29.092Z,13.02
2023-04-16T05:27:57.023Z,12.88
2023-04-16T05:30:25.137Z,12.58
2023-04-16T05:32:52.971Z,13.13
2023-04-16T05:35:20.962Z,12.80
2023-04-16T05:37:48.880Z,12.85
2023-04-16T05:40:16.765Z,12.29
2023-04-16T05:42:44.897Z,12.96
2023-04-16T05:45:12.979Z,12.55
2023-04-16T05:47:41.991Z,12.63
2023-04-16T05:50:10.439Z,12.56
2023-04-16T05:52:38.664Z,12.60
2023-04-16T05:55:07.538Z,12.37
2023-04-16T05:57:35.577Z,11.54
2023-04-16T06:00:04.238Z,11.88
2023-04-16T06:02:40.031Z,12.11
2023-04-16T06:05:08.793Z,12.12
2023-04-16T06:07:36.628Z,11.93
2023-04-16T06:10:04.990Z,11.48
2023-04-16T06:12:33.499Z,11.32
2023-04-16T06:15:02.290Z,11.29
2023-04-16T06:17:31.412Z,11.21
2023-04-16T06:19:59.247Z,10.73
2023-04-16T06:22:27.389Z,10.66
2023-04-16T06:24:56.056Z,10.51
2023-04-16T06:27:23.900Z,10.56
2023-04-16T06:29:51.892Z,9.98
2023-04-16T06:32:20.001Z,10.02
2023-04-16T06:34:47.781Z,9.41
2023-04-16T06:37:16.772Z,9.38
2023-04-16T06:39:44.692Z,9.41
2023-04-16T06:42:12.483Z,9.22
2023-04-16T06:44:40.447Z,8.81
2023-04-16T06:47:09.190Z,9.49
2023-04-16T06:49:39.029Z,9.20
2023-04-16T06:52:07.039Z,9.75
2023-04-16T06:54:35.779Z,9.92
2023-04-16T06:57:06.245Z,10.00
2023-04-16T06:59:34.057Z,9.69
2023-04-16T07:02:04.516Z,9.83
2023-04-16T07:04:32.420Z,9.68
2023-04-16T07:07:00.459Z,10.43
2023-04-16T07:09:28.787Z,10.65
2023-04-16T07:11:57.086Z,10.88
2023-04-16T07:14:24.960Z,10.94
2023-04-16T07:16:52.893Z,11.37
2023-04-16T07:19:21.231Z,11.67
2023-04-16T07:21:49.379Z,11.88
2023-04-16T07:24:17.372Z,11.86
2023-04-16T07:26:45.196Z,11.75
2023-04-16T07:29:13.772Z,11.79
2023-04-16T07:31:42.854Z,12.30
2023-04-16T07:34:10.860Z,12.19
2023-04-16T07:36:39.114Z,12.27
2023-04-16T07:39:07.180Z,12.02
2023-04-16T07:41:35.143Z,12.44
2023-04-16T07:44:03.705Z,12.12
2023-04-16T07:46:45.718Z,11.91
2023-04-16T07:49:15.894Z,11.93
2023-04-16T07:51:44.116Z,12.27
2023-04-16T07:54:12.519Z,12.52
2023-04-16T07:56:40.789Z,12.61
2023-04-16T08:01:42.824Z,12.13
2023-04-16T08:04:11.002Z,12.40
2023-04-16T08:06:39.032Z,12.14
2023-04-16T08:09:06.913Z,11.88
2023-04-16T08:11:34.848Z,11.81
2023-04-16T08:14:05.707Z,12.31
2023-04-16T08:16:33.815Z,11.97
2023-04-16T08:19:02.450Z,11.38
2023-04-16T08:21:32.090Z,11.02
2023-04-16T08:24:01.621Z,10.34
2023-04-16T08:26:29.476Z,10.14
2023-04-16T08:28:57.614Z,9.89
2023-04-16T08:31:25.750Z,9.60
2023-04-16T08:33:56.244Z,10.15
2023-04-16T08:36:24.014Z,9.58
2023-04-16T08:38:52.472Z,9.36
2023-04-16T08:41:24.174Z,9.56
2023-04-16T08:43:59.118Z,9.26
2023-04-16T08:46:30.188Z,9.66
2023-04-16T08:49:01.252Z,9.25
2023-04-16T08:51:34.173Z,9.23
2023-04-16T08:54:09.183Z,9.15
2023-04-16T08:56:40.822Z,9.02
2023-04-16T08:59:11.128Z,8.31
2023-04-16T09:01:42.055Z,9.15
2023-04-16T09:04:10.432Z,9.23
2023-04-16T09:06:41.875Z,9.58
2023-04-16T09:09:14.952Z,9.89
2023-04-16T09:11:49.236Z,9.40
2023-04-16T09:14:17.902Z,8.93
2023-04-16T09:16:50.329Z,9.29
2023-04-16T09:19:18.469Z,9.21
2023-04-16T09:21:48.275Z,9.04
2023-04-16T09:24:16.665Z,8.77
2023-04-16T09:26:45.206Z,9.52
2023-04-16T09:29:32.968Z,9.97
2023-04-16T09:32:12.124Z,10.26
2023-04-16T09:35:00.889Z,11.72
2023-04-16T09:37:31.029Z,14.89
2023-04-16T09:40:02.011Z,15.92
2023-04-16T09:42:35.277Z,14.87
2023-04-16T09:45:05.688Z,13.96
2023-04-16T09:47:41.860Z,12.38
2023-04-16T09:50:17.771Z,11.42
2023-04-16T09:52:51.397Z,11.74
2023-04-16T09:55:27.327Z,12.24
2023-04-16T09:58:03.472Z,12.87
2023-04-16T10:00:32.655Z,12.64
2023-04-16T10:03:07.795Z,14.28
2023-04-16T10:05:36.910Z,14.66
2023-04-16T10:08:17.638Z,14.24
2023-04-16T10:10:46.673Z,14.28
2023-04-16T10:13:17.934Z,14.62
2023-04-16T10:15:46.174Z,15.76
2023-04-16T10:18:15.976Z,16.60
2023-04-16T10:20:45.432Z,16.32
2023-04-16T10:23:13.739Z,18.78
2023-04-16T10:25:42.623Z,19.36
2023-04-16T10:28:12.395Z,18.74
2023-04-16T10:30:43.258Z,18.97
2023-04-16T10:33:11.905Z,20.61
2023-04-16T10:35:46.852Z,20.11
2023-04-16T10:38:28.552Z,19.90
2023-04-16T10:41:03.065Z,19.54
2023-04-16T10:43:41.386Z,19.16
2023-04-16T10:46:33.961Z,20.37
2023-04-16T10:49:03.785Z,20.27
2023-04-16T10:51:36.555Z,21.43
2023-04-16T10:54:08.878Z,21.87
2023-04-16T10:56:38.303Z,21.73
2023-04-16T10:59:18.572Z,21.59
2023-04-16T11:01:55.081Z,21.77
2023-04-16T11:04:27.168Z,21.92
2023-04-16T11:07:07.040Z,22.65
2023-04-16T11:10:03.400Z,22.97
2023-04-16T11:12:35.868Z,22.51
2023-04-16T11:15:09.983Z,23.22
2023-04-16T11:17:39.716Z,23.70
2023-04-16T11:20:22.868Z,25.65
2023-04-16T11:22:53.822Z,26.54
2023-04-16T11:25:25.353Z,26.06
2023-04-16T11:27:54.113Z,25.93
2023-04-16T11:30:36.845Z,26.84
2023-04-16T11:33:10.158Z,26.63
2023-04-16T11:35:39.744Z,26.91
2023-04-16T11:38:08.151Z,26.92
2023-04-16T11:40:36.637Z,26.50
2023-04-16T11:43:17.466Z,26.14
2023-04-16T11:46:16.194Z,26.45
2023-04-16T11:48:54.880Z,25.76
2023-04-16T11:51:24.076Z,25.23
2023-04-16T11:53:56.368Z,25.05
2023-04-16T11:56:34.284Z,24.65
2023-04-16T11:59:09.362Z,24.78
2023-04-16T12:01:39.511Z,24.74
2023-04-16T12:04:09.051Z,24.16
2023-04-16T12:06:37.049Z,24.60
2023-04-16T12:09:25.122Z,25.51
2023-04-16T12:11:53.069Z,25.40
2023-04-16T12:14:21.671Z,25.47
2023-04-16T12:16:50.041Z,26.10
2023-04-16T12:19:18.455Z,26.22
2023-04-16T12:21:50.496Z,26.18
2023-04-16T12:24:20.975Z,25.11
2023-04-16T12:26:56.254Z,25.65
2023-04-16T12:29:27.693Z,25.82
2023-04-16T12:31:58.009Z,25.36
2023-04-16T12:34:48.452Z,26.32
2023-04-16T12:37:15.082Z,25.71
2023-04-16T12:39:43.860Z,25.37
2023-04-16T12:42:12.910Z,24.93
2023-04-16T12:44:41.070Z,24.12
2023-04-16T12:47:11.690Z,24.87
2023-04-16T12:49:39.928Z,25.01
2023-04-16T12:52:08.491Z,25.48
2023-04-16T12:54:36.672Z,24.67
2023-04-16T12:57:04.582Z,25.93
2023-04-16T12:59:32.483Z,25.90
2023-04-16T13:02:02.945Z,25.86
2023-04-16T13:04:31.665Z,25.70
2023-04-16T13:07:01.013Z,25.32
2023-04-16T13:09:29.075Z,25.48
2023-04-16T13:11:57.099Z,25.03
2023-04-16T13:14:24.883Z,24.62
2023-04-16T13:16:52.869Z,24.58
2023-04-16T13:19:21.269Z,24.68
2023-04-16T13:21:49.358Z,24.51
2023-04-16T13:24:17.435Z,25.60
2023-04-16T13:26:45.746Z,25.13
2023-04-16T13:29:13.556Z,26.14
2023-04-16T13:31:41.522Z,25.62
2023-04-16T13:34:09.639Z,25.58
2023-04-16T13:36:37.745Z,25.84
2023-04-16T13:39:10.984Z,26.30
2023-04-16T13:41:40.049Z,26.18
2023-04-16T13:44:07.965Z,26.36
2023-04-16T13:46:35.932Z,27.11
2023-04-16T13:49:04.146Z,27.13
2023-04-16T13:51:32.479Z,26.75
2023-04-16T13:54:01.490Z,26.94
2023-04-16T13:56:29.516Z,27.43
2023-04-16T13:58:57.510Z,26.21
2023-04-16T14:01:25.394Z,26.58
2023-04-16T14:03:53.413Z,26.80
2023-04-16T14:06:21.369Z,26.06
2023-04-16T14:08:49.209Z,26.41
2023-04-16T14:11:17.532Z,26.44
2023-04-16T14:13:45.524Z,26.31
2023-04-16T14:16:14.087Z,25.95
2023-04-16T14:18:42.579Z,26.99
2023-04-16T14:21:10.571Z,26.38
2023-04-16T14:23:38.703Z,27.08
2023-04-16T14:26:06.632Z,26.74
2023-04-16T14:28:35.823Z,26.27
2023-04-16T14:31:03.836Z,25.68
2023-04-16T14:33:34.518Z,26.10
2023-04-16T14:36:03.297Z,25.48
2023-04-16T14:38:34.608Z,26.16
2023-04-16T14:41:07.093Z,26.33
2023-04-16T14:43:35.843Z,26.31
2023-04-16T14:46:06.594Z,25.50
2023-04-16T14:48:34.752Z,25.81
2023-04-16T14:51:03.094Z,25.67
2023-04-16T14:53:31.350Z,25.58
2023-04-16T14:55:59.196Z,25.28
2023-04-16T14:58:27.138Z,24.52
2023-04-16T15:00:55.289Z,24.30
2023-04-16T15:03:24.092Z,24.37
2023-04-16T15:05:56.281Z,24.83
2023-04-16T15:08:25.125Z,25.59
2023-04-16T15:10:53.127Z,24.78
2023-04-16T15:13:21.072Z,25.06
2023-04-16T15:15:49.356Z,24.42
2023-04-16T15:18:18.061Z,24.72
2023-04-16T15:20:45.855Z,25.59
2023-04-16T15:23:14.237Z,25.77
2023-04-16T15:25:41.957Z,25.48
2023-04-16T15:28:09.754Z,24.68
2023-04-16T15:30:40.209Z,24.99
2023-04-16T15:33:08.900Z,25.89
2023-04-16T15:35:38.989Z,25.21
2023-04-16T15:38:10.079Z,25.53
2023-04-16T15:40:37.956Z,24.76
2023-04-16T15:43:07.437Z,25.28
2023-04-16T15:45:35.406Z,26.32
2023-04-16T15:48:05.602Z,26.10
2023-04-16T15:50:34.474Z,26.79
2023-04-16T15:53:05.224Z,26.45
2023-04-16T15:55:33.232Z,26.68
2023-04-16T15:58:01.362Z,26.96
2023-04-16T16:00:29.314Z,26.24
2023-04-16T16:02:57.242Z,26.52
2023-04-16T16:05:25.177Z,26.81
2023-04-16T16:07:53.568Z,26.66
2023-04-16T16:10:21.596Z,26.22
2023-04-16T16:12:49.693Z,26.41
2023-04-16T16:15:17.647Z,27.38
2023-04-16T16:17:45.848Z,26.90
2023-04-16T16:20:14.798Z,27.26
2023-04-16T16:22:47.876Z,27.09
2023-04-16T16:25:16.922Z,27.14
2023-04-16T16:27:45.268Z,26.94
2023-04-16T16:30:13.619Z,27.78
2023-04-16T16:32:43.086Z,26.84
2023-04-16T16:35:13.366Z,26.98
2023-04-16T16:37:41.447Z,27.21
2023-04-16T16:40:09.970Z,26.39
2023-04-16T16:42:38.202Z,25.85
2023-04-16T16:45:06.978Z,27.46
2023-04-16T16:47:35.304Z,26.75
2023-04-16T16:50:04.335Z,26.81
2023-04-16T16:52:32.825Z,27.28
2023-04-16T16:55:01.862Z,26.36
2023-04-16T16:57:29.816Z,26.39
2023-04-16T16:59:57.616Z,26.35
2023-04-16T17:02:25.927Z,26.50
2023-04-16T17:04:53.963Z,26.31
2023-04-16T17:07:21.986Z,25.78
2023-04-16T17:09:50.444Z,25.93
2023-04-16T17:12:18.303Z,26.54
2023-04-16T17:14:53.698Z,26.27
2023-04-16T17:17:21.630Z,26.05
2023-04-16T17:19:49.852Z,26.38
2023-04-16T17:22:18.683Z,26.19
2023-04-16T17:24:47.668Z,25.82
2023-04-16T17:27:15.761Z,26.32
2023-04-16T17:29:43.979Z,25.92
2023-04-16T17:32:12.152Z,26.45
2023-04-16T17:34:40.072Z,26.12
2023-04-16T17:37:09.011Z,25.40
2023-04-16T17:39:37.138Z,26.46
2023-04-16T17:42:04.919Z,26.00
2023-04-16T17:44:32.859Z,25.83
2023-04-16T17:47:01.212Z,25.57
2023-04-16T17:49:29.477Z,25.85
2023-04-16T17:51:57.669Z,25.54
2023-04-16T17:54:26.352Z,25.90
2023-04-16T17:56:54.605Z,25.31
2023-04-16T17:59:22.838Z,25.84
2023-04-16T18:01:51.033Z,25.53
2023-04-16T18:04:19.561Z,25.24
2023-04-16T18:06:48.364Z,25.67
2023-04-16T18:09:21.381Z,26.04
2023-04-16T18:11:49.909Z,25.25
2023-04-16T18:14:21.747Z,25.38
2023-04-16T18:16:50.067Z,25.41
2023-04-16T18:19:18.622Z,25.46
2023-04-16T18:21:46.850Z,25.66
2023-04-16T18:24:16.297Z,25.44
2023-04-16T18:26:46.824Z,26.10
2023-04-16T18:29:18.102Z,25.44
2023-04-16T18:31:46.179Z,25.03
2023-04-16T18:34:14.869Z,24.84
2023-04-16T18:36:43.092Z,24.63
2023-04-16T18:39:11.443Z,24.95
2023-04-16T18:41:40.809Z,24.64
2023-04-16T18:44:10.913Z,24.89
2023-04-16T18:46:38.926Z,24.12
2023-04-16T18:49:06.868Z,24.25
2023-04-16T18:51:35.314Z,24.83
2023-04-16T18:54:03.486Z,24.55
2023-04-16T18:56:31.914Z,24.92
2023-04-16T18:59:00.554Z,24.64
2023-04-16T19:01:28.631Z,24.83
2023-04-16T19:03:57.138Z,24.18
2023-04-16T19:06:25.201Z,25.49
2023-04-16T19:08:53.131Z,25.03
2023-04-16T19:11:25.157Z,25.16
2023-04-16T19:13:53.421Z,25.17
2023-04-16T19:16:21.152Z,25.30
2023-04-16T19:18:48.954Z,25.40
2023-04-16T19:21:17.641Z,25.17
2023-04-16T19:23:45.704Z,26.15
2023-04-16T19:26:13.452Z,26.29
2023-04-16T19:28:42.580Z,25.83
2023-04-16T19:31:10.925Z,25.91
2023-04-16T19:33:39.240Z,25.62
2023-04-16T19:36:09.484Z,25.86
2023-04-16T19:38:37.611Z,26.58
2023-04-16T19:41:05.553Z,27.07
2023-04-16T19:43:33.504Z,26.30
2023-04-16T19:46:03.920Z,26.13
2023-04-16T19:48:34.912Z,25.93
2023-04-16T19:51:04.348Z,26.60
2023-04-16T19:53:32.692Z,26.61
2023-04-16T19:56:00.879Z,26.44
2023-04-16T19:58:29.110Z,27.45
2023-04-16T20:00:57.446Z,27.28
2023-04-16T20:03:25.478Z,27.49
2023-04-16T20:05:53.363Z,26.81
2023-04-16T20:08:21.872Z,27.28
2023-04-16T20:10:49.785Z,27.31
2023-04-16T20:13:18.789Z,27.74
2023-04-16T20:15:47.365Z,28.01
2023-04-16T20:18:15.877Z,28.13
2023-04-16T20:20:43.744Z,28.20
2023-04-16T20:23:11.735Z,28.10
2023-04-16T20:25:43.286Z,28.75
2023-04-16T20:28:11.324Z,29.12
2023-04-16T20:30:40.066Z,29.42
2023-04-16T20:33:09.163Z,28.85
2023-04-16T20:35:37.770Z,29.27
2023-04-16T20:38:05.671Z,29.49
2023-04-16T20:40:34.212Z,29.36
2023-04-16T20:43:02.401Z,29.51
2023-04-16T20:45:42.525Z,29.46
2023-04-16T20:48:12.040Z,29.18
2023-04-16T20:50:39.808Z,28.90
2023-04-16T20:53:07.565Z,29.50
2023-04-16T20:55:35.765Z,29.81
2023-04-16T20:58:03.730Z,28.46
2023-04-16T21:00:31.844Z,30.14
2023-04-16T21:03:00.041Z,29.57
2023-04-16T21:05:30.709Z,29.88
2023-04-16T21:07:58.544Z,30.43
2023-04-16T21:10:26.718Z,30.45
2023-04-16T21:12:54.557Z,29.56
2023-04-16T21:15:22.443Z,30.69
2023-04-16T21:17:50.587Z,29.69
2023-04-16T21:20:18.501Z,30.49
2023-04-16T21:22:46.554Z,31.31
2023-04-16T21:25:17.078Z,30.48
2023-04-16T21:27:44.959Z,31.13
2023-04-16T21:30:13.596Z,30.69
2023-04-16T21:32:41.614Z,30.30
2023-04-16T21:35:09.865Z,30.68
2023-04-16T21:37:37.977Z,30.97
2023-04-16T21:40:06.485Z,30.25
2023-04-16T21:42:39.711Z,29.80
2023-04-16T21:45:09.650Z,30.10
2023-04-16T21:47:37.935Z,29.56
2023-04-16T21:50:06.512Z,29.81
2023-04-16T21:52:40.422Z,30.03
2023-04-16T21:55:09.744Z,30.49
2023-04-16T21:57:40.633Z,30.26
2023-04-16T22:00:14.282Z,29.42
2023-04-16T22:02:43.686Z,30.52
2023-04-16T22:05:11.752Z,29.42
2023-04-16T22:07:39.629Z,29.02
2023-04-16T22:10:08.954Z,30.25
2023-04-16T22:12:40.201Z,28.98
2023-04-16T22:15:09.369Z,29.61
2023-04-16T22:17:37.894Z,28.67
2023-04-16T22:20:07.636Z,29.32
2023-04-16T22:22:35.908Z,29.19
2023-04-16T22:25:04.109Z,29.29
2023-04-16T22:27:32.126Z,29.24
2023-04-16T22:30:00.294Z,28.46
2023-04-16T22:32:30.235Z,28.97
2023-04-16T22:34:58.361Z,29.24
2023-04-16T22:37:29.283Z,29.03
2023-04-16T22:39:57.294Z,28.91
2023-04-16T22:42:25.227Z,29.06
2023-04-16T22:44:53.169Z,28.91
2023-04-16T22:47:21.702Z,28.35
2023-04-16T22:49:51.768Z,29.19
2023-04-16T22:52:19.682Z,29.33
2023-04-16T22:54:47.788Z,28.56
2023-04-16T22:57:17.487Z,28.19
2023-04-16T22:59:45.316Z,28.27
2023-04-16T23:02:13.243Z,28.42
2023-04-16T23:04:41.595Z,28.15
2023-04-16T23:07:09.589Z,28.68
2023-04-16T23:09:37.525Z,28.76
2023-04-16T23:12:05.542Z,28.11
2023-04-16T23:14:33.404Z,27.51
2023-04-16T23:17:01.651Z,28.39
2023-04-16T23:19:31.396Z,27.58
2023-04-16T23:21:59.290Z,29.35
2023-04-16T23:24:27.137Z,29.01
2023-04-16T23:26:54.933Z,28.92
2023-04-16T23:29:22.866Z,30.04
2023-04-16T23:31:50.744Z,28.90
2023-04-16T23:34:18.562Z,29.62
2023-04-16T23:36:46.468Z,30.10
2023-04-16T23:39:14.298Z,30.82
2023-04-16T23:41:42.143Z,30.44
2023-04-16T23:44:10.035Z,32.15
2023-04-16T23:46:39.413Z,32.99
2023-04-16T23:49:07.662Z,34.52
2023-04-16T23:51:35.630Z,34.40
2023-04-16T23:54:03.582Z,35.22
2023-04-16T23:56:31.970Z,36.05
2023-04-16T23:58:59.758Z,36.66
